Weather reports worldwide

Advertisment
Puerto Leitariegos, Spain (8052): temperature & dewpoint: 19.09.2018 08:00:00 - 25.09.2018 08:00:00 (CEST)Puerto Leitariegos, Spain (8052): wind speed & gusts: 19.09.2018 08:00:00 - 25.09.2018 08:00:00 (CEST)Puerto Leitariegos, Spain (8052): wind direction: 19.09.2018 08:00:00 - 25.09.2018 08:00:00 (CEST)Puerto Leitariegos, Spain (8052): visibility: 19.09.2018 08:00:00 - 25.09.2018 08:00:00 (CEST)Puerto Leitariegos, Spain (8052): sunshine duration: 19.09.2018 08:00:00 - 25.09.2018 08:00:00 (CEST)Puerto Leitariegos, Spain (8052): precipitation: 19.09.2018 08:00:00 - 25.09.2018 08:00:00 (CEST)
Date & Time tt [°C] td [°C] ff [km/h] ff [kn] fx [km/h] fx [kn] dd vv [km] sd [min] rr [mm]
25.09.2018 08:00:00 - - - - - - - - - -
25.09.2018 07:00:00 9,1 7,1 7 4 9 5 SE 20 0 0,0
25.09.2018 06:00:00 - - - - - - - - - -
25.09.2018 05:00:00 8,5 7,3 7 4 10 5 SSE 20 0 0,0
25.09.2018 04:00:00 - - - - - - - - - -
25.09.2018 03:00:00 9,2 8,3 8 4 14 7 SSE 20 0 0,0
25.09.2018 02:00:00 9,0 8,4 7 4 12 6 SE 20 0 -
25.09.2018 01:00:00 - - - - - - - - - -
25.09.2018 00:00:00 6,3 5,7 10 5 22 12 NNW 0,3 0 0,0
24.09.2018 23:00:00 7,5 6,9 8 5 12 6 NNW 0,3 0 0,0
24.09.2018 22:00:00 - - - - - - - - - -
24.09.2018 21:00:00 7,7 7,1 9 5 18 10 NNW - 0 0,0
24.09.2018 20:00:00 9,0 8,4 16 9 22 12 NNW 0,1 0 -
24.09.2018 19:00:00 - - - - - - - - - -
24.09.2018 18:00:00 - - - - - - - - - -
24.09.2018 17:00:00 11,9 11,1 19 10 25 14 NNW - 0 0,0
24.09.2018 16:00:00 13,6 12,2 17 9 24 13 NNW 0,3 27 0,0
24.09.2018 15:00:00 13,7 12,1 16 9 23 13 NNW 0,5 41 0,0
24.09.2018 14:00:00 - - - - - - - - - -
24.09.2018 13:00:00 13,4 12,1 14 7 18 10 NNW 0,3 60 0,0
24.09.2018 12:00:00 - - - - - - - - - -
24.09.2018 11:00:00 13,0 10,4 6 3 10 5 E 20 60 0,0
24.09.2018 10:00:00 11,1 10,5 5 3 11 6 N 0,8 15 0,0
24.09.2018 09:00:00 - - - - - - - - - -
24.09.2018 08:00:00 9,8 9,0 5 3 8 5 W 0,3 0 -
24.09.2018 07:00:00 10,0 9,1 5 3 11 6 WNW - 0 0,0
24.09.2018 06:00:00 9,6 8,7 6 3 9 5 NW 3,5 0 0,0
24.09.2018 05:00:00 - - - - - - - - - -
24.09.2018 04:00:00 11,0 10,1 9 5 16 9 NNW 9 0 0,0
24.09.2018 03:00:00 10,9 10,1 13 7 19 10 NNW 9 0 0,0
24.09.2018 02:00:00 11,2 10,4 14 7 18 10 NNW - 0 -
24.09.2018 01:00:00 11,6 5,3 7 4 13 7 NW 20 0 0,0
24.09.2018 00:00:00 - - - - - - - - - -
23.09.2018 23:00:00 12,2 10,8 14 7 30 16 NW 20 0 0,0
23.09.2018 22:00:00 13,5 12,6 16 9 29 16 NW 0,1 0 0,0
23.09.2018 21:00:00 - - - - - - - - - -
23.09.2018 20:00:00 15,5 12,4 14 8 32 18 WNW 20 0 -
23.09.2018 19:00:00 16,7 12,0 19 10 42 23 WNW 20 39 0,0
23.09.2018 18:00:00 19,0 13,0 19 11 37 20 WNW 20 60 0,0
23.09.2018 17:00:00 20,1 12,8 18 10 39 21 WNW 20 60 0,0
23.09.2018 16:00:00 21,1 13,3 13 7 36 19 NW 20 60 0,0
23.09.2018 15:00:00 22,2 10,7 18 10 32 17 NW 20 60 0,0
23.09.2018 14:00:00 22,6 7,6 11 6 20 11 NW 20 60 -
23.09.2018 13:00:00 21,9 8,4 11 6 17 9 NW 20 60 0,0
23.09.2018 12:00:00 - - - - - - - - - -
23.09.2018 11:00:00 - - - - - - - - - -
23.09.2018 10:00:00 - - - - - - - - - -
23.09.2018 09:00:00 11,8 7,3 2 1 - - NNE 20 0 0,0
23.09.2018 08:00:00 11,5 6,4 2 1 5 3 ESE 20 0 -
23.09.2018 07:00:00 11,2 7,5 1 1 4 2 NW 20 0 0,0
23.09.2018 06:00:00 11,4 7,7 1 1 6 3 NNW 20 0 0,0
23.09.2018 05:00:00 11,5 6,6 1 1 4 2 S 20 0 0,0
23.09.2018 04:00:00 11,8 6,9 2 1 11 6 N 20 0 0,0
23.09.2018 03:00:00 - - - - - - - - - -
23.09.2018 02:00:00 11,9 7,0 3 2 6 3 NW 20 0 -
23.09.2018 01:00:00 12,2 7,7 2 1 5 3 NW 20 0 0,0
23.09.2018 00:00:00 13,3 10,1 2 1 9 5 NNE 20 0 0,0
22.09.2018 23:00:00 - - - - - - - - - -
22.09.2018 22:00:00 14,7 12,7 12 7 18 10 NW 20 0 0,0
22.09.2018 21:00:00 - - - - - - - - - -
22.09.2018 20:00:00 17,4 12,3 16 8 19 11 WNW 20 0 -
22.09.2018 19:00:00 18,5 11,3 11 6 22 12 WNW 20 41 0,0
22.09.2018 18:00:00 21,5 11,8 12 7 23 13 NW 20 59 0,0
22.09.2018 17:00:00 22,1 11,8 13 7 22 12 NW 20 60 0,0
22.09.2018 16:00:00 22,1 11,5 11 6 23 12 NW 20 60 0,0
22.09.2018 15:00:00 21,9 11,0 14 7 21 11 NNW 20 60 0,0
22.09.2018 14:00:00 20,8 12,0 15 8 20 11 NW 20 60 -
22.09.2018 13:00:00 19,8 12,1 13 7 20 11 NW 20 60 0,0
22.09.2018 12:00:00 19,0 11,1 11 6 15 8 NW 20 60 0,0
22.09.2018 11:00:00 18,4 11,0 4 2 - - SE 20 60 0,0
22.09.2018 10:00:00 15,3 11,1 4 2 7 4 SE 20 60 0,0
22.09.2018 09:00:00 10,8 8,2 2 1 6 3 N 20 0 0,0
22.09.2018 08:00:00 - - - - - - - - - -
22.09.2018 07:00:00 11,3 9,0 2 1 11 6 SSW 20 0 0,0
22.09.2018 06:00:00 - - - - - - - - - -
22.09.2018 05:00:00 11,5 9,2 5 3 11 6 SE 20 0 0,0
22.09.2018 04:00:00 11,3 9,2 4 2 9 5 SSE 20 0 0,0
22.09.2018 03:00:00 - - - - - - - - - -
22.09.2018 02:00:00 12,2 10,4 6 3 11 6 SSW 20 0 -
22.09.2018 01:00:00 - - - - - - - - - -
22.09.2018 00:00:00 11,4 9,7 3 1 8 4 S 20 0 0,0
21.09.2018 23:00:00 12,0 10,2 5 3 9 5 SSE 20 0 0,0
21.09.2018 22:00:00 12,5 11,2 6 4 14 8 NNW 20 0 0,0
21.09.2018 21:00:00 13,0 11,9 8 4 18 10 N 14 0 0,0
21.09.2018 20:00:00 - - - - - - - - - -
21.09.2018 19:00:00 14,8 11,9 - - - - - 20 0 0,0
21.09.2018 18:00:00 15,5 12,4 13 7 19 10 NW 20 12 0,0
21.09.2018 17:00:00 - - - - - - - - - -
21.09.2018 16:00:00 15,1 11,9 11 6 23 12 NW 20 1 0,0
21.09.2018 15:00:00 17,1 12,0 10 6 22 12 NNW 20 26 0,0
21.09.2018 14:00:00 - - - - - - - - - -
21.09.2018 13:00:00 15,8 11,2 14 7 21 11 NNW 20 39 0,0
21.09.2018 12:00:00 15,2 7,7 9 5 19 10 NNW 20 57 0,0
21.09.2018 11:00:00 14,6 6,7 4 2 9 5 ESE 20 45 0,0
21.09.2018 10:00:00 12,3 6,4 2 1 7 4 SE 20 15 0,0
21.09.2018 09:00:00 - - - - - - - - - -
21.09.2018 08:00:00 9,3 4,1 4 2 11 6 ESE 20 0 -
21.09.2018 07:00:00 - - - - - - - - - -
21.09.2018 06:00:00 10,4 1,5 10 5 18 10 SSW 20 0 0,0
21.09.2018 05:00:00 9,5 5,3 4 2 22 12 S 20 0 0,0
21.09.2018 04:00:00 10,4 5,8 7 4 17 9 NW 20 0 0,0
21.09.2018 03:00:00 - - - - - - - - - -
21.09.2018 02:00:00 11,1 4,8 6 3 14 8 SE 20 0 -
21.09.2018 01:00:00 11,5 4,3 6 3 13 7 W 20 0 0,0
21.09.2018 00:00:00 11,3 2,4 6 3 16 9 SSE 20 0 0,0
20.09.2018 23:00:00 - - - - - - - - - -
20.09.2018 22:00:00 13,3 3,1 8 4 33 18 WNW 20 0 0,0
20.09.2018 21:00:00 - - - - - - - - - -
20.09.2018 20:00:00 15,6 7,1 8 5 19 11 WNW 20 0 -
20.09.2018 19:00:00 18,5 7,6 10 5 22 12 NW 20 40 0,0
20.09.2018 18:00:00 19,5 9,7 8 4 21 12 NW 20 36 0,0
20.09.2018 17:00:00 21,2 3,4 18 10 47 25 SE 20 60 0,0
20.09.2018 16:00:00 21,7 3,9 24 13 58 31 SSE 20 60 0,0
20.09.2018 15:00:00 21,0 4,1 22 12 54 29 SE 20 60 0,0
20.09.2018 14:00:00 20,6 6,6 19 10 39 21 SSE 20 60 -
20.09.2018 13:00:00 20,8 7,1 14 8 42 23 ESE 20 60 0,0
20.09.2018 12:00:00 20,0 5,3 16 9 34 18 ESE 20 60 0,0
20.09.2018 11:00:00 18,8 3,8 15 8 34 18 ESE 20 60 0,0
20.09.2018 10:00:00 16,8 5,8 10 5 14 8 ESE 20 60 0,0
20.09.2018 09:00:00 12,2 1,5 5 3 9 5 ESE 20 2 0,0
20.09.2018 08:00:00 11,7 0,8 4 2 11 6 SSE 20 0 -
20.09.2018 07:00:00 10,9 2,7 4 2 10 5 S 20 0 0,0
20.09.2018 06:00:00 - - - - - - - - - -
20.09.2018 05:00:00 - - - - - - - - - -
20.09.2018 04:00:00 11,4 4,2 8 4 14 7 S 20 0 0,0
20.09.2018 03:00:00 10,8 4,3 3 1 12 6 NNW 20 0 0,0
20.09.2018 02:00:00 - - - - - - - - - -
20.09.2018 01:00:00 12,1 4,6 6 3 11 6 SSE 20 0 0,0
20.09.2018 00:00:00 11,7 5,4 3 2 8 4 SE 20 0 0,0
19.09.2018 23:00:00 - - - - - - - - - -
19.09.2018 22:00:00 12,1 7,2 8 5 14 8 NW 20 0 0,0
19.09.2018 21:00:00 - - - - - - - - - -
19.09.2018 20:00:00 14,3 9,5 9 5 17 9 NW 20 0 -
19.09.2018 19:00:00 16,1 9,8 13 7 19 10 WNW 20 48 0,0
19.09.2018 18:00:00 19,0 9,8 12 7 26 14 NW 20 60 0,0
19.09.2018 17:00:00 20,1 10,0 10 5 23 13 NNW 20 60 0,0
19.09.2018 16:00:00 21,2 9,1 6 3 32 17 N 15 60 0,0
19.09.2018 15:00:00 21,3 4,8 14 8 32 17 SE 20 60 0,0
19.09.2018 14:00:00 20,7 5,5 12 7 32 17 SSE 20 60 -
19.09.2018 13:00:00 20,4 4,9 12 6 35 19 ESE 20 60 0,0
19.09.2018 12:00:00 19,4 5,1 10 6 29 16 E 20 60 0,0
19.09.2018 11:00:00 17,1 7,5 11 6 17 9 ESE 20 60 0,0
19.09.2018 10:00:00 15,3 7,4 7 4 11 6 SE 20 60 0,0
19.09.2018 09:00:00 - - - - - - - - - -
19.09.2018 08:00:00 10,7 4,0 3 1 8 5 SSE 20 0 -

tt = temperature
td = dewpoint
ff = wind speed
fx = gusts
dd = wind direction
vv = visibility
sd = sunshine duration
rr = precipitation

Next stations